createdAt,value
2017-11-27T00:01:10.701Z,6.02
2017-11-27T00:02:38.999Z,6.01
2017-11-27T00:04:05.082Z,5.99
2017-11-27T00:05:33.294Z,5.99
2017-11-27T00:07:00.541Z,5.98
2017-11-27T00:08:26.562Z,6.01
2017-11-27T00:09:53.840Z,6.00
2017-11-27T00:11:21.031Z,6.01
2017-11-27T00:12:49.313Z,6.02
2017-11-27T00:14:16.450Z,6.00
2017-11-27T00:15:42.717Z,6.00
2017-11-27T00:17:10.114Z,6.05
2017-11-27T00:18:38.396Z,6.10
2017-11-27T00:20:04.690Z,6.13
2017-11-27T00:21:32.136Z,6.16
2017-11-27T00:23:00.301Z,6.18
2017-11-27T00:24:27.385Z,6.17
2017-11-27T00:25:54.669Z,6.11
2017-11-27T00:27:21.783Z,6.08
2017-11-27T00:28:49.112Z,6.08
2017-11-27T00:30:15.132Z,6.11
2017-11-27T00:31:42.429Z,6.12
2017-11-27T00:33:10.788Z,6.12
2017-11-27T00:34:37.856Z,6.14
2017-11-27T00:36:03.999Z,6.15
2017-11-27T00:37:31.127Z,6.16
2017-11-27T00:38:58.060Z,6.19
2017-11-27T00:40:26.443Z,6.19
2017-11-27T00:41:52.463Z,6.18
2017-11-27T00:43:20.728Z,6.11
2017-11-27T00:44:48.092Z,6.07
2017-11-27T00:46:14.383Z,6.06
2017-11-27T00:47:42.586Z,6.05
2017-11-27T00:49:08.726Z,6.01
2017-11-27T00:50:36.041Z,6.00
2017-11-27T00:52:03.324Z,5.98
2017-11-27T00:53:31.379Z,5.93
2017-11-27T00:54:57.756Z,5.90
2017-11-27T00:56:25.884Z,5.87
2017-11-27T00:57:52.202Z,5.87
2017-11-27T00:59:20.510Z,5.93
2017-11-27T01:00:46.679Z,5.96
2017-11-27T01:02:15.051Z,6.01
2017-11-27T01:03:41.276Z,6.05
2017-11-27T01:05:08.359Z,6.08
2017-11-27T01:06:36.754Z,6.10
2017-11-27T01:08:02.973Z,6.07
2017-11-27T01:09:31.130Z,6.09
2017-11-27T01:10:57.484Z,6.12
2017-11-27T01:12:24.854Z,6.14
2017-11-27T01:13:51.902Z,6.13
2017-11-27T01:15:19.823Z,6.14
2017-11-27T01:16:47.119Z,6.17
2017-11-27T01:18:14.397Z,6.18
2017-11-27T01:19:41.564Z,6.19
2017-11-27T01:21:07.965Z,6.21
2017-11-27T01:22:36.161Z,6.18
2017-11-27T01:24:02.169Z,6.19
2017-11-27T01:25:30.211Z,6.19
2017-11-27T01:26:56.550Z,6.17
2017-11-27T01:28:24.934Z,6.14
2017-11-27T01:29:51.120Z,6.16
2017-11-27T01:31:19.398Z,6.14
2017-11-27T01:32:46.670Z,6.12
2017-11-27T01:34:12.815Z,6.14
2017-11-27T01:35:40.104Z,6.10
2017-11-27T01:37:08.397Z,6.08
2017-11-27T01:38:35.498Z,6.08
2017-11-27T01:40:01.630Z,6.09
2017-11-27T01:41:29.721Z,6.07
2017-11-27T01:42:55.688Z,6.07
2017-11-27T01:44:22.861Z,6.08
2017-11-27T01:45:50.170Z,6.10
2017-11-27T01:47:17.414Z,6.13
2017-11-27T01:48:45.618Z,6.07
2017-11-27T01:50:11.909Z,6.08
2017-11-27T01:51:40.212Z,6.05
2017-11-27T01:53:06.361Z,6.02
2017-11-27T01:54:34.656Z,6.01
2017-11-27T01:56:00.856Z,6.00
2017-11-27T01:57:27.803Z,6.00
2017-11-27T01:58:56.151Z,5.98
2017-11-27T02:00:23.333Z,5.92
2017-11-27T02:01:50.437Z,5.89
2017-11-27T02:03:17.666Z,5.89
2017-11-27T02:04:44.706Z,5.88
2017-11-27T02:06:10.982Z,5.90
2017-11-27T02:07:39.377Z,5.90
2017-11-27T02:09:06.619Z,5.88
2017-11-27T02:10:33.762Z,5.87
2017-11-27T02:12:00.864Z,5.86
2017-11-27T02:13:27.221Z,5.86
2017-11-27T02:14:54.591Z,5.85
2017-11-27T02:16:22.745Z,5.85
2017-11-27T02:17:49.076Z,5.80
2017-11-27T02:19:17.429Z,5.77
2017-11-27T02:20:44.751Z,5.79
2017-11-27T02:22:11.087Z,5.81
2017-11-27T02:23:38.321Z,5.81
2017-11-27T02:25:06.580Z,5.86
2017-11-27T02:26:32.876Z,5.90
2017-11-27T02:28:00.009Z,5.94
2017-11-27T02:29:27.160Z,5.92
2017-11-27T02:30:54.372Z,5.89
2017-11-27T02:32:21.716Z,5.88
2017-11-27T02:33:50.002Z,5.90
2017-11-27T02:35:16.399Z,5.94
2017-11-27T02:36:44.783Z,5.94
2017-11-27T02:38:12.131Z,5.93
2017-11-27T02:39:39.400Z,5.92
2017-11-27T02:41:06.633Z,5.91
2017-11-27T02:42:33.623Z,5.93
2017-11-27T02:44:00.943Z,5.90
2017-11-27T02:45:28.207Z,5.92
2017-11-27T02:46:54.428Z,5.86
2017-11-27T02:48:22.589Z,5.83
2017-11-27T02:49:48.965Z,5.81
2017-11-27T02:51:16.227Z,5.73
2017-11-27T02:52:43.520Z,5.67
2017-11-27T02:54:10.742Z,5.67
2017-11-27T02:55:37.977Z,5.71
2017-11-27T02:57:05.278Z,5.74
2017-11-27T02:58:33.556Z,5.75
2017-11-27T02:59:59.671Z,5.78
2017-11-27T03:01:27.016Z,5.83
2017-11-27T03:02:55.380Z,5.86
2017-11-27T03:04:22.344Z,5.88
2017-11-27T03:05:48.825Z,5.89
2017-11-27T03:07:16.178Z,5.88
2017-11-27T03:08:43.544Z,5.88
2017-11-27T03:10:10.474Z,5.89
2017-11-27T03:11:38.600Z,5.89
2017-11-27T03:13:04.806Z,5.91
2017-11-27T03:14:32.063Z,5.89
2017-11-27T03:16:00.283Z,5.87
2017-11-27T03:17:27.448Z,5.87
2017-11-27T03:18:54.602Z,5.89
2017-11-27T03:20:20.894Z,5.90
2017-11-27T03:21:47.997Z,5.82
2017-11-27T03:23:15.226Z,5.76
2017-11-27T03:24:43.546Z,5.73
2017-11-27T03:26:10.743Z,5.75
2017-11-27T03:27:37.942Z,5.76
2017-11-27T03:29:05.149Z,5.75
2017-11-27T03:30:32.321Z,5.73
2017-11-27T03:31:58.469Z,5.68
2017-11-27T03:33:26.599Z,5.71
2017-11-27T03:34:52.987Z,5.72
2017-11-27T03:36:21.322Z,5.74
2017-11-27T03:37:48.440Z,5.75
2017-11-27T03:39:14.858Z,5.75
2017-11-27T03:40:42.060Z,5.77
2017-11-27T03:42:09.570Z,5.80
2017-11-27T03:43:37.928Z,5.82
2017-11-27T03:45:04.101Z,5.84
2017-11-27T03:46:32.396Z,5.85
2017-11-27T03:47:58.257Z,5.76
2017-11-27T03:49:25.507Z,5.73
2017-11-27T03:50:53.029Z,5.68
2017-11-27T03:52:20.169Z,5.64
2017-11-27T03:53:47.445Z,5.62
2017-11-27T03:55:15.712Z,5.61
2017-11-27T03:56:43.061Z,5.60
2017-11-27T03:58:09.404Z,5.59
2017-11-27T03:59:36.415Z,5.62
2017-11-27T04:01:03.568Z,5.63
2017-11-27T04:02:30.672Z,5.64
2017-11-27T04:03:58.899Z,5.65
2017-11-27T04:05:25.034Z,5.64
2017-11-27T04:06:53.257Z,5.62
2017-11-27T04:08:20.521Z,5.62
2017-11-27T04:09:47.749Z,5.61
2017-11-27T04:11:13.809Z,5.61
2017-11-27T04:12:40.934Z,5.62
2017-11-27T04:14:09.338Z,5.63
2017-11-27T04:15:35.440Z,5.64
2017-11-27T04:17:03.705Z,5.64
2017-11-27T04:18:30.818Z,5.64
2017-11-27T04:19:56.790Z,5.64
2017-11-27T04:21:24.023Z,5.64
2017-11-27T04:22:51.213Z,5.60
2017-11-27T04:24:18.136Z,5.56
2017-11-27T04:25:45.469Z,5.55
2017-11-27T04:27:13.440Z,5.55
2017-11-27T04:28:40.608Z,5.55
2017-11-27T04:30:07.921Z,5.55
2017-11-27T04:31:35.193Z,5.51
2017-11-27T04:33:01.126Z,5.46
2017-11-27T04:34:29.260Z,5.44
2017-11-27T04:35:55.489Z,5.44
2017-11-27T04:37:22.790Z,5.45
2017-11-27T04:38:50.120Z,5.46
2017-11-27T04:40:18.341Z,5.46
2017-11-27T04:41:44.486Z,5.37
2017-11-27T04:43:12.830Z,5.31
2017-11-27T04:44:38.867Z,5.32
2017-11-27T04:46:07.092Z,5.34
2017-11-27T04:47:33.322Z,5.39
2017-11-27T04:49:00.567Z,5.40
2017-11-27T04:50:28.007Z,5.40
2017-11-27T04:51:55.193Z,5.40
2017-11-27T04:53:23.280Z,5.41
2017-11-27T04:54:50.512Z,5.41
2017-11-27T04:56:16.910Z,5.41
2017-11-27T04:57:45.172Z,5.39
2017-11-27T04:59:11.380Z,5.38
2017-11-27T05:00:39.782Z,5.38
2017-11-27T05:02:06.907Z,5.41
2017-11-27T05:03:33.179Z,5.43
2017-11-27T05:05:00.427Z,5.44
2017-11-27T05:06:27.697Z,5.45
2017-11-27T05:07:54.973Z,5.42
2017-11-27T05:09:22.143Z,5.41
2017-11-27T05:10:49.637Z,5.41
2017-11-27T05:12:16.926Z,5.33
2017-11-27T05:13:45.237Z,5.31
2017-11-27T05:15:12.697Z,5.32
2017-11-27T05:16:38.978Z,5.35
2017-11-27T05:18:06.214Z,5.29
2017-11-27T05:19:33.312Z,5.28
2017-11-27T05:21:00.436Z,5.23
2017-11-27T05:22:28.533Z,5.24
2017-11-27T05:23:54.860Z,5.24
2017-11-27T05:25:22.178Z,5.26
2017-11-27T05:26:50.399Z,5.25
2017-11-27T05:28:17.553Z,5.22
2017-11-27T05:29:43.758Z,5.21
2017-11-27T05:31:11.014Z,5.24
2017-11-27T05:32:38.984Z,5.27
2017-11-27T05:34:04.898Z,5.28
2017-11-27T05:35:32.163Z,5.28
2017-11-27T05:36:59.383Z,5.27
2017-11-27T05:38:27.599Z,5.26
2017-11-27T05:39:53.519Z,5.24
2017-11-27T05:41:26.852Z,5.23
2017-11-27T05:42:48.966Z,5.22
2017-11-27T05:44:15.870Z,5.19
2017-11-27T05:45:41.913Z,5.17
2017-11-27T05:47:09.231Z,5.14
2017-11-27T05:48:36.347Z,5.11
2017-11-27T05:50:04.716Z,5.08
2017-11-27T05:51:31.825Z,5.05
2017-11-27T05:52:59.161Z,5.04
2017-11-27T05:54:26.331Z,5.03
2017-11-27T05:55:53.662Z,5.01
2017-11-27T05:57:20.023Z,5.01
2017-11-27T05:58:47.324Z,5.02
2017-11-27T06:00:14.496Z,5.00
2017-11-27T06:01:42.578Z,4.98
2017-11-27T06:03:08.731Z,4.97
2017-11-27T06:04:35.708Z,4.96
2017-11-27T06:06:03.728Z,4.96
2017-11-27T06:07:30.894Z,4.95
2017-11-27T06:08:57.221Z,4.95
2017-11-27T06:10:24.537Z,4.96
2017-11-27T06:11:51.439Z,4.97
2017-11-27T06:13:18.646Z,4.95
2017-11-27T06:14:45.846Z,4.94
2017-11-27T06:16:14.090Z,4.95
2017-11-27T06:17:40.017Z,4.94
2017-11-27T06:19:08.401Z,4.92
2017-11-27T06:20:34.669Z,4.92
2017-11-27T06:22:02.939Z,4.91
2017-11-27T06:23:29.242Z,4.90
2017-11-27T06:24:57.765Z,4.90
2017-11-27T06:26:24.911Z,4.90
2017-11-27T06:27:52.302Z,4.90
2017-11-27T06:29:19.636Z,4.91
2017-11-27T06:30:45.859Z,4.91
2017-11-27T06:32:13.037Z,4.90
2017-11-27T06:33:41.306Z,4.89
2017-11-27T06:35:08.889Z,4.90
2017-11-27T06:36:35.262Z,4.90
2017-11-27T06:38:02.518Z,4.91
2017-11-27T06:39:29.433Z,4.90
2017-11-27T06:40:57.555Z,4.91
2017-11-27T06:42:24.045Z,4.91
2017-11-27T06:43:52.225Z,4.90
2017-11-27T06:45:19.577Z,4.90
2017-11-27T06:46:45.939Z,4.91
2017-11-27T06:48:14.388Z,4.92
2017-11-27T06:49:40.600Z,4.93
2017-11-27T06:51:09.081Z,4.92
2017-11-27T06:52:35.110Z,4.93
2017-11-27T06:54:02.241Z,4.94
2017-11-27T06:55:29.302Z,4.93
2017-11-27T06:56:56.539Z,4.94
2017-11-27T06:58:23.915Z,4.94
2017-11-27T06:59:51.163Z,4.94
2017-11-27T07:01:18.483Z,4.95
2017-11-27T07:02:46.746Z,4.96
2017-11-27T07:04:14.113Z,4.96
2017-11-27T07:05:41.330Z,4.95
2017-11-27T07:07:07.523Z,4.94
2017-11-27T07:08:35.146Z,4.96
2017-11-27T07:10:02.102Z,4.96
2017-11-27T07:11:29.454Z,4.95
2017-11-27T07:12:56.831Z,4.94
2017-11-27T07:14:24.028Z,4.93
2017-11-27T07:15:51.273Z,4.90
2017-11-27T07:17:18.435Z,4.86
2017-11-27T07:18:46.598Z,4.86
2017-11-27T07:20:12.879Z,4.85
2017-11-27T07:21:40.261Z,4.85
2017-11-27T07:23:07.518Z,4.83
2017-11-27T07:24:34.842Z,4.82
2017-11-27T07:26:02.088Z,4.82
2017-11-27T07:27:29.316Z,4.81
2017-11-27T07:28:57.776Z,4.82
2017-11-27T07:30:24.791Z,4.82
2017-11-27T07:31:52.259Z,4.85
2017-11-27T07:33:19.443Z,4.85
2017-11-27T07:34:46.532Z,4.86
2017-11-27T07:36:13.627Z,4.85
2017-11-27T07:37:40.164Z,4.86
2017-11-27T07:39:08.257Z,4.86
2017-11-27T07:40:34.636Z,4.86
2017-11-27T07:42:01.962Z,4.86
2017-11-27T07:43:28.988Z,4.88
2017-11-27T07:44:57.244Z,4.90
2017-11-27T07:46:23.502Z,4.91
2017-11-27T07:47:50.591Z,4.93
2017-11-27T07:49:17.967Z,4.92
2017-11-27T07:50:46.272Z,4.94
2017-11-27T07:52:13.312Z,4.92
2017-11-27T07:53:40.559Z,4.91
2017-11-27T07:55:06.757Z,4.90
2017-11-27T07:56:34.016Z,4.91
2017-11-27T07:58:01.085Z,4.90
2017-11-27T07:59:29.117Z,4.91
2017-11-27T08:00:56.517Z,4.93
2017-11-27T08:02:22.562Z,4.94
2017-11-27T08:03:50.895Z,4.95
2017-11-27T08:05:18.022Z,4.96
2017-11-27T08:06:44.355Z,4.96
2017-11-27T08:08:11.436Z,4.97
2017-11-27T08:09:38.722Z,4.98
2017-11-27T08:11:05.998Z,5.00
2017-11-27T08:12:34.256Z,5.02
2017-11-27T08:14:00.306Z,5.03
2017-11-27T08:15:28.672Z,5.05
2017-11-27T08:16:55.974Z,5.06
2017-11-27T08:18:22.221Z,5.06
2017-11-27T08:19:49.098Z,5.07
2017-11-27T08:21:16.402Z,5.08
2017-11-27T08:22:44.825Z,5.08
2017-11-27T08:24:11.100Z,5.09
2017-11-27T08:25:38.141Z,5.09
2017-11-27T08:27:05.298Z,5.10
2017-11-27T08:28:32.409Z,5.10
2017-11-27T08:30:00.613Z,5.10
2017-11-27T08:31:26.930Z,5.10
2017-11-27T08:32:55.282Z,5.10
2017-11-27T08:34:21.691Z,5.08
2017-11-27T08:35:49.934Z,5.09
2017-11-27T08:37:15.943Z,5.08
2017-11-27T08:38:43.305Z,5.09
2017-11-27T08:40:11.567Z,5.12
2017-11-27T08:41:37.931Z,5.12
2017-11-27T08:43:05.158Z,5.14
2017-11-27T08:44:33.635Z,5.16
2017-11-27T08:45:59.683Z,5.16
2017-11-27T08:47:27.968Z,5.17
2017-11-27T08:48:54.167Z,5.18
2017-11-27T08:50:22.613Z,5.21
2017-11-27T08:51:48.798Z,5.20
2017-11-27T08:53:16.723Z,5.20
2017-11-27T08:54:43.103Z,5.21
2017-11-27T08:56:11.095Z,5.23
2017-11-27T08:57:38.285Z,5.25
2017-11-27T08:59:04.458Z,5.26
2017-11-27T09:00:31.814Z,5.26
2017-11-27T09:01:58.781Z,5.27
2017-11-27T09:03:25.593Z,5.30
2017-11-27T09:04:52.802Z,5.33
2017-11-27T09:06:20.408Z,5.33
2017-11-27T09:07:47.606Z,5.34
2017-11-27T09:09:13.758Z,5.36
2017-11-27T09:10:40.996Z,5.39
2017-11-27T09:12:07.718Z,5.42
2017-11-27T09:13:36.138Z,5.44
2017-11-27T09:15:03.298Z,5.46
2017-11-27T09:16:29.059Z,5.48
2017-11-27T09:17:56.237Z,5.50
2017-11-27T09:19:22.905Z,5.52
2017-11-27T09:20:51.150Z,5.53
2017-11-27T09:22:18.331Z,5.55
2017-11-27T09:23:44.596Z,5.54
2017-11-27T09:25:12.920Z,5.56
2017-11-27T09:26:40.155Z,5.58
2017-11-27T09:28:05.818Z,5.59
2017-11-27T09:29:34.036Z,5.60
2017-11-27T09:31:01.225Z,5.61
2017-11-27T09:32:27.617Z,5.63
2017-11-27T09:33:55.562Z,5.64
2017-11-27T09:35:22.729Z,5.64
2017-11-27T09:36:50.288Z,5.63
2017-11-27T09:38:17.437Z,5.64
2017-11-27T09:39:43.712Z,5.65
2017-11-27T09:41:10.938Z,5.64
2017-11-27T09:42:38.065Z,5.65
2017-11-27T09:44:05.302Z,5.66
2017-11-27T09:45:33.277Z,5.68
2017-11-27T09:47:00.262Z,5.69
2017-11-27T09:48:26.554Z,5.69
2017-11-27T09:49:53.642Z,5.71
2017-11-27T09:51:20.906Z,5.69
2017-11-27T09:52:48.098Z,5.70
2017-11-27T09:54:15.381Z,5.72
2017-11-27T09:55:42.728Z,5.71
2017-11-27T09:57:09.924Z,5.71
2017-11-27T09:58:36.955Z,5.71
2017-11-27T10:00:04.064Z,5.70
2017-11-27T10:01:31.435Z,5.70
2017-11-27T10:02:59.305Z,5.69
2017-11-27T10:04:26.759Z,5.71
2017-11-27T10:05:53.973Z,5.70
2017-11-27T10:07:19.858Z,5.70
2017-11-27T10:08:46.678Z,5.71
2017-11-27T10:10:15.042Z,5.71
2017-11-27T10:11:42.286Z,5.70
2017-11-27T10:13:08.514Z,5.70
2017-11-27T10:14:36.709Z,5.69
2017-11-27T10:16:03.103Z,5.68
2017-11-27T10:17:30.375Z,5.68
2017-11-27T10:18:57.567Z,5.69
2017-11-27T10:20:25.827Z,5.71
2017-11-27T10:21:53.186Z,5.72
2017-11-27T10:23:19.444Z,5.72
2017-11-27T10:24:46.769Z,5.71
2017-11-27T10:26:13.779Z,5.71
2017-11-27T10:27:42.114Z,5.72
2017-11-27T10:29:09.496Z,5.72
2017-11-27T10:30:36.801Z,5.73
2017-11-27T10:32:02.925Z,5.74
2017-11-27T10:33:30.202Z,5.73
2017-11-27T10:34:57.494Z,5.73
2017-11-27T10:36:25.808Z,5.73
2017-11-27T10:37:52.129Z,5.73
2017-11-27T10:39:20.466Z,5.76
2017-11-27T10:40:47.810Z,5.76
2017-11-27T10:42:14.981Z,5.78
2017-11-27T10:43:41.039Z,5.78
2017-11-27T10:45:08.214Z,5.79
2017-11-27T10:46:35.365Z,5.79
2017-11-27T10:48:02.581Z,5.79
2017-11-27T10:49:30.744Z,5.79
2017-11-27T10:50:58.064Z,5.78
2017-11-27T10:52:25.240Z,5.78
2017-11-27T10:53:52.355Z,5.78
2017-11-27T10:55:18.613Z,5.76
2017-11-27T10:56:46.895Z,5.77
2017-11-27T10:58:13.179Z,5.77
2017-11-27T10:59:40.113Z,5.78
2017-11-27T11:01:07.473Z,5.81
2017-11-27T11:02:34.761Z,5.82
2017-11-27T11:04:02.876Z,5.83
2017-11-27T11:05:30.109Z,5.84
2017-11-27T11:06:57.287Z,5.84
2017-11-27T11:08:24.651Z,5.86
2017-11-27T11:09:50.984Z,5.87
2017-11-27T11:11:19.357Z,5.86
2017-11-27T11:12:46.432Z,5.87
2017-11-27T11:14:13.618Z,5.88
2017-11-27T11:15:40.896Z,5.89
2017-11-27T11:17:07.178Z,5.90
2017-11-27T11:18:34.559Z,5.90
2017-11-27T11:20:02.743Z,5.90
2017-11-27T11:21:28.928Z,5.91
2017-11-27T11:22:56.072Z,5.93
2017-11-27T11:24:23.181Z,5.96
2017-11-27T11:25:51.369Z,5.97
2017-11-27T11:27:17.800Z,5.99
2017-11-27T11:28:45.196Z,5.99
2017-11-27T11:30:12.358Z,5.99
2017-11-27T11:31:40.749Z,5.99
2017-11-27T11:33:07.934Z,6.00
2017-11-27T11:34:35.360Z,6.01
2017-11-27T11:36:01.476Z,6.03
2017-11-27T11:37:28.591Z,6.03
2017-11-27T11:38:55.790Z,6.03
2017-11-27T11:40:22.672Z,6.02
2017-11-27T11:41:50.943Z,6.03
2017-11-27T11:43:17.385Z,6.05
2017-11-27T11:44:45.717Z,6.06
2017-11-27T11:46:12.927Z,6.07
2017-11-27T11:47:38.813Z,6.06
2017-11-27T11:49:06.792Z,6.08
2017-11-27T11:50:32.793Z,6.08
2017-11-27T11:52:00.140Z,6.07
2017-11-27T11:53:28.600Z,6.08
2017-11-27T11:54:55.853Z,6.07
2017-11-27T11:56:22.146Z,6.08
2017-11-27T11:57:49.091Z,6.08
2017-11-27T11:59:16.092Z,6.07
2017-11-27T12:00:43.444Z,6.05
2017-11-27T12:02:10.676Z,6.06
2017-11-27T12:03:38.618Z,6.04
2017-11-27T12:05:05.027Z,6.04
2017-11-27T12:06:33.257Z,6.06
2017-11-27T12:07:59.389Z,6.08
2017-11-27T12:09:27.722Z,6.10
2017-11-27T12:10:54.877Z,6.10
2017-11-27T12:12:22.353Z,6.08
2017-11-27T12:13:49.430Z,6.08
2017-11-27T12:15:15.782Z,6.03
2017-11-27T12:16:42.917Z,6.02
2017-11-27T12:18:10.114Z,6.04
2017-11-27T12:19:38.528Z,6.02
2017-11-27T12:21:04.828Z,6.01
2017-11-27T12:22:32.022Z,6.01
2017-11-27T12:23:59.213Z,5.99
2017-11-27T12:25:26.616Z,5.98
2017-11-27T12:26:53.875Z,5.96
2017-11-27T12:28:21.122Z,5.95
2017-11-27T12:29:48.368Z,5.96
2017-11-27T12:31:16.792Z,5.95
2017-11-27T12:32:42.843Z,5.94
2017-11-27T12:34:10.904Z,5.93
2017-11-27T12:35:37.185Z,5.91
2017-11-27T12:37:04.578Z,5.90
2017-11-27T12:38:33.003Z,5.89
2017-11-27T12:39:59.157Z,5.87
2017-11-27T12:41:26.486Z,5.86
2017-11-27T12:42:54.880Z,5.85
2017-11-27T12:44:20.970Z,5.83
2017-11-27T12:45:48.118Z,5.81
2017-11-27T12:47:15.344Z,5.81
2017-11-27T12:48:42.820Z,5.81
2017-11-27T12:50:11.106Z,5.81
2017-11-27T12:51:38.189Z,5.82
2017-11-27T12:53:04.628Z,5.80
2017-11-27T12:54:31.864Z,5.77
2017-11-27T12:55:58.925Z,5.76
2017-11-27T12:57:27.290Z,5.76
2017-11-27T12:58:53.621Z,5.73
2017-11-27T13:00:21.882Z,5.72
2017-11-27T13:01:49.166Z,5.70
2017-11-27T13:03:15.496Z,5.67
2017-11-27T13:04:42.798Z,5.65
2017-11-27T13:06:09.856Z,5.63
2017-11-27T13:07:38.061Z,5.58
2017-11-27T13:09:04.166Z,5.57
2017-11-27T13:10:32.312Z,5.56
2017-11-27T13:11:58.394Z,5.54
2017-11-27T13:13:25.547Z,5.54
2017-11-27T13:14:53.668Z,5.55
2017-11-27T13:16:21.023Z,5.54
2017-11-27T13:17:47.217Z,5.53
2017-11-27T13:19:15.416Z,5.50
2017-11-27T13:20:42.660Z,5.48
2017-11-27T13:22:09.000Z,5.47
2017-11-27T13:23:37.176Z,5.49
2017-11-27T13:25:03.470Z,5.49
2017-11-27T13:26:31.576Z,5.48
2017-11-27T13:27:58.704Z,5.47
2017-11-27T13:29:24.992Z,5.45
2017-11-27T13:30:53.215Z,5.45
2017-11-27T13:32:20.260Z,5.45
2017-11-27T13:33:47.550Z,5.45
2017-11-27T13:35:14.695Z,5.43
2017-11-27T13:36:42.012Z,5.39
2017-11-27T13:38:08.365Z,5.37
2017-11-27T13:39:35.398Z,5.36
2017-11-27T13:41:03.759Z,5.35
2017-11-27T13:42:29.925Z,5.35
2017-11-27T13:43:56.936Z,5.36
2017-11-27T13:45:25.180Z,5.37
2017-11-27T13:46:52.243Z,5.35
2017-11-27T13:48:18.522Z,5.33
2017-11-27T13:49:46.943Z,5.31
2017-11-27T13:51:14.110Z,5.31
2017-11-27T13:52:41.305Z,5.30
2017-11-27T13:54:07.468Z,5.26
2017-11-27T13:55:34.595Z,5.23
2017-11-27T13:57:02.679Z,5.25
2017-11-27T13:58:29.650Z,5.25
2017-11-27T13:59:56.981Z,5.23
2017-11-27T14:01:23.187Z,5.22
2017-11-27T14:02:50.517Z,5.20
2017-11-27T14:04:17.849Z,5.16
2017-11-27T14:05:45.051Z,5.15
2017-11-27T14:07:13.267Z,5.12
2017-11-27T14:08:39.402Z,5.12
2017-11-27T14:10:07.769Z,5.12
2017-11-27T14:11:33.950Z,5.10
2017-11-27T14:13:02.133Z,5.08
2017-11-27T14:14:28.223Z,5.05
2017-11-27T14:15:55.499Z,5.04
2017-11-27T14:17:22.720Z,5.01
2017-11-27T14:18:50.048Z,4.97
2017-11-27T14:20:18.434Z,4.92
2017-11-27T14:21:45.675Z,4.93
2017-11-27T14:23:11.844Z,4.92
2017-11-27T14:24:40.135Z,4.90
2017-11-27T14:26:07.253Z,4.88
2017-11-27T14:27:33.484Z,4.88
2017-11-27T14:29:00.704Z,4.88
2017-11-27T14:30:29.080Z,4.88
2017-11-27T14:31:56.354Z,4.88
2017-11-27T14:33:22.636Z,4.87
2017-11-27T14:34:49.956Z,4.87
2017-11-27T14:36:18.191Z,4.85
2017-11-27T14:37:45.331Z,4.86
2017-11-27T14:39:11.521Z,4.85
2017-11-27T14:40:38.542Z,4.84
2017-11-27T14:42:06.794Z,4.82
2017-11-27T14:43:33.050Z,4.81
2017-11-27T14:45:01.264Z,4.80
2017-11-27T14:46:28.451Z,4.79
2017-11-27T14:47:54.686Z,4.78
2017-11-27T14:49:22.937Z,4.78
2017-11-27T14:50:49.765Z,4.77
2017-11-27T14:52:15.961Z,4.73
2017-11-27T14:53:43.137Z,4.72
2017-11-27T14:55:10.199Z,4.71
2017-11-27T14:56:37.476Z,4.70
2017-11-27T14:58:04.683Z,4.70
2017-11-27T14:59:31.941Z,4.69
2017-11-27T15:00:59.110Z,4.70
2017-11-27T15:02:27.488Z,4.68
2017-11-27T15:03:53.554Z,4.70
2017-11-27T15:05:21.747Z,4.67
2017-11-27T15:06:48.952Z,4.66
2017-11-27T15:08:16.267Z,4.66
2017-11-27T15:09:42.431Z,4.64
2017-11-27T15:11:09.621Z,4.63
2017-11-27T15:12:36.948Z,4.63
2017-11-27T15:14:04.073Z,4.61
2017-11-27T15:15:32.153Z,4.61
2017-11-27T15:16:58.032Z,4.61
2017-11-27T15:18:25.369Z,4.62
2017-11-27T15:19:53.707Z,4.60
2017-11-27T15:21:21.015Z,4.59
2017-11-27T15:22:47.071Z,4.57
2017-11-27T15:24:15.283Z,4.53
2017-11-27T15:25:41.551Z,4.52
2017-11-27T15:27:08.800Z,4.52
2017-11-27T15:28:36.127Z,4.53
2017-11-27T15:30:04.295Z,4.54
2017-11-27T15:31:30.559Z,4.55
2017-11-27T15:32:57.746Z,4.54
2017-11-27T15:34:26.047Z,4.53
2017-11-27T15:35:52.415Z,4.52
2017-11-27T15:37:20.542Z,4.54
2017-11-27T15:38:47.827Z,4.52
2017-11-27T15:40:14.927Z,4.53
2017-11-27T15:41:41.018Z,4.52
2017-11-27T15:43:08.237Z,4.51
2017-11-27T15:44:36.530Z,4.50
2017-11-27T15:46:02.711Z,4.51
2017-11-27T15:47:29.960Z,4.50
2017-11-27T15:48:58.265Z,4.48
2017-11-27T15:50:25.527Z,4.45
2017-11-27T15:51:51.629Z,4.43
2017-11-27T15:53:19.810Z,4.43
2017-11-27T15:54:47.101Z,4.43
2017-11-27T15:56:13.296Z,4.41
2017-11-27T15:57:41.559Z,4.41
2017-11-27T15:59:08.773Z,4.39
2017-11-27T16:00:35.728Z,4.39
2017-11-27T16:02:02.721Z,4.37
2017-11-27T16:03:30.016Z,4.34
2017-11-27T16:04:56.168Z,4.31
2017-11-27T16:06:23.511Z,4.32
2017-11-27T16:07:51.617Z,4.31
2017-11-27T16:09:17.884Z,4.28
2017-11-27T16:10:45.202Z,4.26
2017-11-27T16:12:13.537Z,4.26
2017-11-27T16:13:40.687Z,4.26
2017-11-27T16:15:07.976Z,4.25
2017-11-27T16:16:34.151Z,4.25
2017-11-27T16:18:02.466Z,4.26
2017-11-27T16:19:28.347Z,4.29
2017-11-27T16:20:56.606Z,4.31
2017-11-27T16:22:22.956Z,4.31
2017-11-27T16:23:51.316Z,4.31
2017-11-27T16:25:18.664Z,4.31
2017-11-27T16:26:44.744Z,4.30
2017-11-27T16:28:12.840Z,4.30
2017-11-27T16:29:39.043Z,4.32
2017-11-27T16:31:06.293Z,4.33
2017-11-27T16:32:34.469Z,4.32
2017-11-27T16:34:00.791Z,4.31
2017-11-27T16:35:27.933Z,4.32
2017-11-27T16:36:56.148Z,4.32
2017-11-27T16:38:22.442Z,4.31
2017-11-27T16:39:50.622Z,4.32
2017-11-27T16:41:17.887Z,4.33
2017-11-27T16:42:44.573Z,4.32
2017-11-27T16:44:11.801Z,4.32
2017-11-27T16:45:38.163Z,4.33
2017-11-27T16:47:06.302Z,4.35
2017-11-27T16:48:33.510Z,4.36
2017-11-27T16:50:00.625Z,4.35
2017-11-27T16:51:26.808Z,4.33
2017-11-27T16:52:54.004Z,4.34
2017-11-27T16:54:21.220Z,4.34
2017-11-27T16:55:49.467Z,4.35
2017-11-27T16:57:16.855Z,4.34
2017-11-27T16:58:42.990Z,4.34
2017-11-27T17:00:11.119Z,4.34
2017-11-27T17:01:37.174Z,4.34
2017-11-27T17:03:05.682Z,4.36
2017-11-27T17:04:31.778Z,4.37
2017-11-27T17:05:58.872Z,4.39
2017-11-27T17:07:29.068Z,4.40
2017-11-27T17:08:53.124Z,4.41
2017-11-27T17:10:20.324Z,4.38
2017-11-27T17:11:48.460Z,4.38
2017-11-27T17:13:14.464Z,4.39
2017-11-27T17:14:41.761Z,4.41
2017-11-27T17:16:08.988Z,4.45
2017-11-27T17:17:37.073Z,4.46
2017-11-27T17:19:04.154Z,4.49
2017-11-27T17:20:31.029Z,4.51
2017-11-27T17:21:57.239Z,4.51
2017-11-27T17:23:25.332Z,4.51
2017-11-27T17:24:51.425Z,4.52
2017-11-27T17:26:19.583Z,4.53
2017-11-27T17:27:45.930Z,4.55
2017-11-27T17:29:13.777Z,4.58
2017-11-27T17:30:39.890Z,4.62
2017-11-27T17:32:07.138Z,4.64
2017-11-27T17:33:35.254Z,4.66
2017-11-27T17:35:02.471Z,4.64
2017-11-27T17:36:28.548Z,4.63
2017-11-27T17:37:56.933Z,4.64
2017-11-27T17:39:24.100Z,4.67
2017-11-27T17:40:50.261Z,4.69
2017-11-27T17:42:17.498Z,4.71
2017-11-27T17:43:45.855Z,4.72
2017-11-27T17:45:13.207Z,4.74
2017-11-27T17:46:40.239Z,4.73
2017-11-27T17:48:06.371Z,4.74
2017-11-27T17:49:33.617Z,4.76
2017-11-27T17:51:00.737Z,4.79
2017-11-27T17:52:28.339Z,4.81
2017-11-27T17:53:56.539Z,4.83
2017-11-27T17:55:22.868Z,4.84
2017-11-27T17:56:50.932Z,4.86
2017-11-27T17:58:17.317Z,4.88
2017-11-27T17:59:45.523Z,4.90
2017-11-27T18:01:12.790Z,4.91
2017-11-27T18:02:38.999Z,4.94
2017-11-27T18:04:06.202Z,4.96
2017-11-27T18:05:33.487Z,4.97
2017-11-27T18:07:00.398Z,4.99
2017-11-27T18:08:28.610Z,5.01
2017-11-27T18:09:54.897Z,5.04
2017-11-27T18:11:22.366Z,5.04
2017-11-27T18:12:50.646Z,5.05
2017-11-27T18:14:16.710Z,5.07
2017-11-27T18:15:44.780Z,5.09
2017-11-27T18:17:10.863Z,5.12
2017-11-27T18:18:38.020Z,5.13
2017-11-27T18:20:05.324Z,5.15
2017-11-27T18:21:33.470Z,5.17
2017-11-27T18:22:59.581Z,5.19
2017-11-27T18:24:26.852Z,5.21
2017-11-27T18:25:54.018Z,5.22
2017-11-27T18:27:21.245Z,5.23
2017-11-27T18:28:48.719Z,5.23
2017-11-27T18:30:15.971Z,5.24
2017-11-27T18:31:43.115Z,5.27
2017-11-27T18:33:10.509Z,5.29
2017-11-27T18:34:38.769Z,5.31
2017-11-27T18:36:05.058Z,5.33
2017-11-27T18:37:32.195Z,5.35
2017-11-27T18:38:59.220Z,5.36
2017-11-27T18:40:26.562Z,5.39
2017-11-27T18:41:54.803Z,5.41
2017-11-27T18:43:21.063Z,5.43
2017-11-27T18:44:48.210Z,5.45
2017-11-27T18:46:16.490Z,5.47
2017-11-27T18:47:42.869Z,5.49
2017-11-27T18:49:10.022Z,5.51
2017-11-27T18:50:38.201Z,5.52
2017-11-27T18:52:04.507Z,5.54
2017-11-27T18:53:31.651Z,5.56
2017-11-27T18:54:58.633Z,5.56
2017-11-27T18:56:25.986Z,5.57
2017-11-27T18:57:54.284Z,5.58
2017-11-27T18:59:21.389Z,5.60
2017-11-27T19:00:48.356Z,5.62
2017-11-27T19:02:14.349Z,5.63
2017-11-27T19:03:41.615Z,5.64
2017-11-27T19:05:09.728Z,5.66
2017-11-27T19:06:36.029Z,5.67
2017-11-27T19:08:04.325Z,5.69
2017-11-27T19:09:31.398Z,5.69
2017-11-27T19:10:57.698Z,5.70
2017-11-27T19:12:26.197Z,5.70
2017-11-27T19:13:53.195Z,5.70
2017-11-27T19:15:20.558Z,5.71
2017-11-27T19:16:46.778Z,5.73
2017-11-27T19:18:14.916Z,5.76
2017-11-27T19:19:41.098Z,5.78
2017-11-27T19:21:08.391Z,5.79